sensor_id;sensor_type;location;lat;lon;timestamp;temperature;humidity
16388;DHT22;8303;53.446;9.988;2023-07-31T04:43:34;15.20;99.90
16388;DHT22;8303;53.446;9.988;2023-07-31T04:46:04;15.20;99.90
16388;DHT22;8303;53.446;9.988;2023-07-31T04:48:31;15.10;99.90
16388;DHT22;8303;53.446;9.988;2023-07-31T04:50:58;15.20;99.90
16388;DHT22;8303;53.446;9.988;2023-07-31T04:53:25;15.10;99.90
16388;DHT22;8303;53.446;9.988;2023-07-31T04:55:52;15.10;99.90
16388;DHT22;8303;53.446;9.988;2023-07-31T04:58:19;15.10;99.90
16388;DHT22;8303;53.446;9.988;2023-07-31T05:00:47;15.10;99.90
16388;DHT22;8303;53.446;9.988;2023-07-31T05:03:14;15.20;99.90
16388;DHT22;8303;53.446;9.988;2023-07-31T05:05:41;15.10;99.90
16388;DHT22;8303;53.446;9.988;2023-07-31T05:08:08;15.10;99.90
16388;DHT22;8303;53.446;9.988;2023-07-31T05:10:35;15.20;99.90
16388;DHT22;8303;53.446;9.988;2023-07-31T05:13:03;15.10;99.90
16388;DHT22;8303;53.446;9.988;2023-07-31T05:15:30;15.10;99.90
16388;DHT22;8303;53.446;9.988;2023-07-31T05:17:58;15.10;99.90
16388;DHT22;8303;53.446;9.988;2023-07-31T05:20:25;15.10;99.90
16388;DHT22;8303;53.446;9.988;2023-07-31T05:22:53;15.00;99.90
16388;DHT22;8303;53.446;9.988;2023-07-31T05:25:22;15.10;99.90
16388;DHT22;8303;53.446;9.988;2023-07-31T05:27:49;15.10;99.90
16388;DHT22;8303;53.446;9.988;2023-07-31T05:30:16;15.10;99.90
16388;DHT22;8303;53.446;9.988;2023-07-31T05:32:43;15.10;99.90
16388;DHT22;8303;53.446;9.988;2023-07-31T05:35:12;15.10;99.90
16388;DHT22;8303;53.446;9.988;2023-07-31T05:37:39;15.10;99.90
16388;DHT22;8303;53.446;9.988;2023-07-31T05:40:07;15.10;99.90
16388;DHT22;8303;53.446;9.988;2023-07-31T05:42:34;15.20;99.90
16388;DHT22;8303;53.446;9.988;2023-07-31T05:45:05;15.20;99.90
16388;DHT22;8303;53.446;9.988;2023-07-31T05:47:32;15.30;99.90
16388;DHT22;8303;53.446;9.988;2023-07-31T05:49:59;15.30;99.90
16388;DHT22;8303;53.446;9.988;2023-07-31T05:52:28;15.40;99.90
16388;DHT22;8303;53.446;9.988;2023-07-31T05:54:55;15.40;99.90
16388;DHT22;8303;53.446;9.988;2023-07-31T05:57:22;15.40;99.90
16388;DHT22;8303;53.446;9.988;2023-07-31T05:59:49;15.50;99.90
16388;DHT22;8303;53.446;9.988;2023-07-31T06:02:16;15.40;99.90
16388;DHT22;8303;53.446;9.988;2023-07-31T06:04:43;15.40;99.90
16388;DHT22;8303;53.446;9.988;2023-07-31T06:07:10;15.50;99.90
16388;DHT22;8303;53.446;9.988;2023-07-31T06:09:38;15.60;99.90
16388;DHT22;8303;53.446;9.988;2023-07-31T06:12:06;15.60;99.90
16388;DHT22;8303;53.446;9.988;2023-07-31T06:14:33;15.60;99.90
16388;DHT22;8303;53.446;9.988;2023-07-31T06:17:02;15.70;99.90
16388;DHT22;8303;53.446;9.988;2023-07-31T06:19:29;15.70;99.90
16388;DHT22;8303;53.446;9.988;2023-07-31T06:21:56;15.70;99.90
16388;DHT22;8303;53.446;9.988;2023-07-31T06:24:23;15.80;99.90
16388;DHT22;8303;53.446;9.988;2023-07-31T06:26:57;15.80;99.90
16388;DHT22;8303;53.446;9.988;2023-07-31T06:29:24;15.90;99.90
16388;DHT22;8303;53.446;9.988;2023-07-31T06:31:51;15.90;99.90
16388;DHT22;8303;53.446;9.988;2023-07-31T06:34:18;15.90;99.90
16388;DHT22;8303;53.446;9.988;2023-07-31T06:36:45;15.90;99.90
16388;DHT22;8303;53.446;9.988;2023-07-31T06:39:12;16.00;99.90
16388;DHT22;8303;53.446;9.988;2023-07-31T06:41:39;16.00;99.90
16388;DHT22;8303;53.446;9.988;2023-07-31T06:44:07;16.10;99.90
16388;DHT22;8303;53.446;9.988;2023-07-31T06:46:35;16.30;99.90
16388;DHT22;8303;53.446;9.988;2023-07-31T06:49:02;16.50;99.90
16388;DHT22;8303;53.446;9.988;2023-07-31T06:51:29;16.60;99.90
16388;DHT22;8303;53.446;9.988;2023-07-31T06:53:58;16.60;96.10
16388;DHT22;8303;53.446;9.988;2023-07-31T06:56:25;16.60;37.80
16388;DHT22;8303;53.446;9.988;2023-07-31T06:58:53;16.60;1.00
16388;DHT22;8303;53.446;9.988;2023-07-31T07:01:21;16.60;1.00
16388;DHT22;8303;53.446;9.988;2023-07-31T07:03:48;16.80;1.00
16388;DHT22;8303;53.446;9.988;2023-07-31T07:06:16;16.50;1.00
16388;DHT22;8303;53.446;9.988;2023-07-31T07:08:43;16.50;14.30
16388;DHT22;8303;53.446;9.988;2023-07-31T07:11:10;16.40;5.50
16388;DHT22;8303;53.446;9.988;2023-07-31T07:13:37;16.40;42.10
16388;DHT22;8303;53.446;9.988;2023-07-31T07:16:04;16.40;99.90
16388;DHT22;8303;53.446;9.988;2023-07-31T07:18:32;16.60;99.90
16388;DHT22;8303;53.446;9.988;2023-07-31T07:20:59;16.60;99.90
16388;DHT22;8303;53.446;9.988;2023-07-31T07:23:28;16.50;94.10
16388;DHT22;8303;53.446;9.988;2023-07-31T07:25:55;16.50;99.90
16388;DHT22;8303;53.446;9.988;2023-07-31T07:28:22;16.50;99.90
16388;DHT22;8303;53.446;9.988;2023-07-31T07:30:51;16.60;99.90
16388;DHT22;8303;53.446;9.988;2023-07-31T07:33:19;16.70;99.90
16388;DHT22;8303;53.446;9.988;2023-07-31T07:35:47;16.80;99.90
16388;DHT22;8303;53.446;9.988;2023-07-31T07:38:14;16.80;70.40
16388;DHT22;8303;53.446;9.988;2023-07-31T07:40:41;16.90;83.70
16388;DHT22;8303;53.446;9.988;2023-07-31T07:43:09;17.20;99.90
16388;DHT22;8303;53.446;9.988;2023-07-31T07:45:38;17.30;1.00
16388;DHT22;8303;53.446;9.988;2023-07-31T07:48:05;17.30;1.00
16388;DHT22;8303;53.446;9.988;2023-07-31T07:50:32;17.30;1.00
16388;DHT22;8303;53.446;9.988;2023-07-31T07:53:01;17.10;1.00
16388;DHT22;8303;53.446;9.988;2023-07-31T07:55:28;17.30;1.00
16388;DHT22;8303;53.446;9.988;2023-07-31T07:57:55;17.30;1.00
16388;DHT22;8303;53.446;9.988;2023-07-31T08:00:21;17.20;1.00
16388;DHT22;8303;53.446;9.988;2023-07-31T08:02:48;17.10;1.00
16388;DHT22;8303;53.446;9.988;2023-07-31T08:05:15;17.20;1.00
16388;DHT22;8303;53.446;9.988;2023-07-31T08:07:43;17.30;1.00
16388;DHT22;8303;53.446;9.988;2023-07-31T08:10:12;17.40;1.00
16388;DHT22;8303;53.446;9.988;2023-07-31T08:12:39;17.60;1.00
16388;DHT22;8303;53.446;9.988;2023-07-31T08:15:07;17.70;1.00
16388;DHT22;8303;53.446;9.988;2023-07-31T08:17:34;17.90;1.00
16388;DHT22;8303;53.446;9.988;2023-07-31T08:20:04;17.80;1.00
16388;DHT22;8303;53.446;9.988;2023-07-31T08:22:31;17.90;1.00
16388;DHT22;8303;53.446;9.988;2023-07-31T08:24:58;17.90;1.00
16388;DHT22;8303;53.446;9.988;2023-07-31T08:27:27;18.00;1.00
16388;DHT22;8303;53.446;9.988;2023-07-31T08:29:56;18.00;1.00
16388;DHT22;8303;53.446;9.988;2023-07-31T08:32:23;17.90;99.90
16388;DHT22;8303;53.446;9.988;2023-07-31T08:34:52;17.90;1.00
16388;DHT22;8303;53.446;9.988;2023-07-31T08:37:19;17.90;1.00
16388;DHT22;8303;53.446;9.988;2023-07-31T08:39:46;18.00;99.90
16388;DHT22;8303;53.446;9.988;2023-07-31T08:42:13;18.10;99.90
16388;DHT22;8303;53.446;9.988;2023-07-31T08:44:42;18.10;99.90
16388;DHT22;8303;53.446;9.988;2023-07-31T08:47:10;18.20;1.00
16388;DHT22;8303;53.446;9.988;2023-07-31T08:49:38;18.00;37.90
16388;DHT22;8303;53.446;9.988;2023-07-31T08:52:07;17.90;1.00
16388;DHT22;8303;53.446;9.988;2023-07-31T08:54:36;17.80;99.90
16388;DHT22;8303;53.446;9.988;2023-07-31T08:57:06;18.00;1.00
16388;DHT22;8303;53.446;9.988;2023-07-31T08:59:35;18.10;1.00
16388;DHT22;8303;53.446;9.988;2023-07-31T09:02:05;18.10;1.00
16388;DHT22;8303;53.446;9.988;2023-07-31T09:04:33;18.20;1.00
16388;DHT22;8303;53.446;9.988;2023-07-31T09:07:01;18.10;1.00
16388;DHT22;8303;53.446;9.988;2023-07-31T09:09:28;17.90;1.00
16388;DHT22;8303;53.446;9.988;2023-07-31T09:11:57;17.90;1.00
16388;DHT22;8303;53.446;9.988;2023-07-31T09:14:25;17.70;1.00
16388;DHT22;8303;53.446;9.988;2023-07-31T09:16:53;17.70;1.00
16388;DHT22;8303;53.446;9.988;2023-07-31T09:19:31;17.70;1.00
16388;DHT22;8303;53.446;9.988;2023-07-31T09:21:59;17.80;1.00
16388;DHT22;8303;53.446;9.988;2023-07-31T09:24:27;18.00;1.00
16388;DHT22;8303;53.446;9.988;2023-07-31T09:26:56;18.00;1.00
16388;DHT22;8303;53.446;9.988;2023-07-31T09:29:25;18.00;1.00
16388;DHT22;8303;53.446;9.988;2023-07-31T09:31:53;18.00;1.00
16388;DHT22;8303;53.446;9.988;2023-07-31T09:34:28;18.00;1.00
16388;DHT22;8303;53.446;9.988;2023-07-31T09:37:02;18.00;1.00
16388;DHT22;8303;53.446;9.988;2023-07-31T09:39:29;17.90;1.00
16388;DHT22;8303;53.446;9.988;2023-07-31T09:41:57;17.90;1.00
16388;DHT22;8303;53.446;9.988;2023-07-31T09:44:38;17.90;1.00
16388;DHT22;8303;53.446;9.988;2023-07-31T09:47:06;18.00;1.00
16388;DHT22;8303;53.446;9.988;2023-07-31T09:49:33;17.80;1.00
16388;DHT22;8303;53.446;9.988;2023-07-31T09:52:01;17.90;1.00
16388;DHT22;8303;53.446;9.988;2023-07-31T09:54:38;17.90;1.00
16388;DHT22;8303;53.446;9.988;2023-07-31T09:57:05;17.80;1.00
16388;DHT22;8303;53.446;9.988;2023-07-31T09:59:32;17.70;1.00
16388;DHT22;8303;53.446;9.988;2023-07-31T10:01:59;17.60;7.90
16388;DHT22;8303;53.446;9.988;2023-07-31T10:04:28;17.40;1.00
16388;DHT22;8303;53.446;9.988;2023-07-31T10:06:55;17.30;41.10
16388;DHT22;8303;53.446;9.988;2023-07-31T10:09:26;17.10;99.90
16388;DHT22;8303;53.446;9.988;2023-07-31T10:12:00;17.10;99.90
16388;DHT22;8303;53.446;9.988;2023-07-31T10:14:30;17.00;99.90
16388;DHT22;8303;53.446;9.988;2023-07-31T10:16:58;17.20;99.90
16388;DHT22;8303;53.446;9.988;2023-07-31T10:19:26;17.30;99.90
16388;DHT22;8303;53.446;9.988;2023-07-31T10:21:54;17.30;99.90
16388;DHT22;8303;53.446;9.988;2023-07-31T10:24:25;17.30;99.90
16388;DHT22;8303;53.446;9.988;2023-07-31T10:26:53;17.20;99.90
16388;DHT22;8303;53.446;9.988;2023-07-31T10:29:23;17.20;99.90
16388;DHT22;8303;53.446;9.988;2023-07-31T10:31:52;17.30;99.90
16388;DHT22;8303;53.446;9.988;2023-07-31T10:34:20;17.40;99.90
16388;DHT22;8303;53.446;9.988;2023-07-31T10:36:47;17.40;99.90
16388;DHT22;8303;53.446;9.988;2023-07-31T10:39:34;17.50;99.90
16388;DHT22;8303;53.446;9.988;2023-07-31T10:42:10;17.70;37.00
16388;DHT22;8303;53.446;9.988;2023-07-31T10:44:37;18.10;15.50
16388;DHT22;8303;53.446;9.988;2023-07-31T10:47:05;18.70;1.00
16388;DHT22;8303;53.446;9.988;2023-07-31T10:49:33;18.80;99.90
16388;DHT22;8303;53.446;9.988;2023-07-31T10:52:03;19.10;1.00
16388;DHT22;8303;53.446;9.988;2023-07-31T10:54:30;19.20;81.60
16388;DHT22;8303;53.446;9.988;2023-07-31T10:56:58;19.20;99.90
16388;DHT22;8303;53.446;9.988;2023-07-31T10:59:26;19.30;1.00
16388;DHT22;8303;53.446;9.988;2023-07-31T11:01:55;19.20;99.90
16388;DHT22;8303;53.446;9.988;2023-07-31T11:04:24;19.10;1.00
16388;DHT22;8303;53.446;9.988;2023-07-31T11:06:56;19.00;99.90
16388;DHT22;8303;53.446;9.988;2023-07-31T11:09:22;19.00;99.90
16388;DHT22;8303;53.446;9.988;2023-07-31T11:11:50;18.80;99.90
16388;DHT22;8303;53.446;9.988;2023-07-31T11:14:19;18.80;99.90
16388;DHT22;8303;53.446;9.988;2023-07-31T11:16:50;18.70;99.90
16388;DHT22;8303;53.446;9.988;2023-07-31T11:19:21;18.90;1.00
16388;DHT22;8303;53.446;9.988;2023-07-31T11:21:48;19.10;1.00
16388;DHT22;8303;53.446;9.988;2023-07-31T11:24:15;19.00;99.90
16388;DHT22;8303;53.446;9.988;2023-07-31T11:26:49;18.80;1.00
16388;DHT22;8303;53.446;9.988;2023-07-31T11:29:16;18.60;1.00
16388;DHT22;8303;53.446;9.988;2023-07-31T11:31:45;18.60;1.00
16388;DHT22;8303;53.446;9.988;2023-07-31T11:34:13;18.60;1.00
16388;DHT22;8303;53.446;9.988;2023-07-31T11:36:40;18.40;1.00
16388;DHT22;8303;53.446;9.988;2023-07-31T11:39:08;18.40;1.00
16388;DHT22;8303;53.446;9.988;2023-07-31T11:41:35;18.30;1.00
16388;DHT22;8303;53.446;9.988;2023-07-31T11:44:03;18.30;90.10
16388;DHT22;8303;53.446;9.988;2023-07-31T11:46:30;18.20;8.60
16388;DHT22;8303;53.446;9.988;2023-07-31T11:49:00;18.20;97.80
16388;DHT22;8303;53.446;9.988;2023-07-31T11:51:28;18.30;99.90
16388;DHT22;8303;53.446;9.988;2023-07-31T11:53:58;18.40;99.90
16388;DHT22;8303;53.446;9.988;2023-07-31T11:56:27;18.50;99.90
16388;DHT22;8303;53.446;9.988;2023-07-31T11:58:57;18.50;7.90
16388;DHT22;8303;53.446;9.988;2023-07-31T12:01:27;18.60;1.00
16388;DHT22;8303;53.446;9.988;2023-07-31T12:03:55;18.60;3.20
16388;DHT22;8303;53.446;9.988;2023-07-31T12:06:32;18.60;1.00
16388;DHT22;8303;53.446;9.988;2023-07-31T12:09:02;18.70;25.30
16388;DHT22;8303;53.446;9.988;2023-07-31T12:11:29;18.70;21.10
16388;DHT22;8303;53.446;9.988;2023-07-31T12:13:56;18.60;1.00
16388;DHT22;8303;53.446;9.988;2023-07-31T12:16:26;18.40;35.40
16388;DHT22;8303;53.446;9.988;2023-07-31T12:18:53;18.50;99.90
16388;DHT22;8303;53.446;9.988;2023-07-31T12:21:20;18.50;99.90
16388;DHT22;8303;53.446;9.988;2023-07-31T12:23:48;18.60;99.90
16388;DHT22;8303;53.446;9.988;2023-07-31T12:26:16;18.70;99.90
16388;DHT22;8303;53.446;9.988;2023-07-31T12:28:44;18.80;99.90
16388;DHT22;8303;53.446;9.988;2023-07-31T12:31:13;18.90;93.70
16388;DHT22;8303;53.446;9.988;2023-07-31T12:33:41;19.00;91.60
16388;DHT22;8303;53.446;9.988;2023-07-31T12:36:12;19.10;19.30
16388;DHT22;8303;53.446;9.988;2023-07-31T12:38:39;19.00;1.00
16388;DHT22;8303;53.446;9.988;2023-07-31T12:41:08;18.90;1.00
16388;DHT22;8303;53.446;9.988;2023-07-31T12:43:40;19.00;1.00
16388;DHT22;8303;53.446;9.988;2023-07-31T12:46:08;18.90;1.00
16388;DHT22;8303;53.446;9.988;2023-07-31T12:48:36;18.80;1.00
16388;DHT22;8303;53.446;9.988;2023-07-31T12:51:04;18.80;95.10
16388;DHT22;8303;53.446;9.988;2023-07-31T12:53:32;18.90;54.50
16388;DHT22;8303;53.446;9.988;2023-07-31T12:55:59;19.00;99.90
16388;DHT22;8303;53.446;9.988;2023-07-31T12:58:27;19.10;25.50
16388;DHT22;8303;53.446;9.988;2023-07-31T13:00:57;19.00;55.50
16388;DHT22;8303;53.446;9.988;2023-07-31T13:03:24;19.10;99.90
16388;DHT22;8303;53.446;9.988;2023-07-31T13:05:52;19.20;99.90
16388;DHT22;8303;53.446;9.988;2023-07-31T13:08:19;19.10;59.00
16388;DHT22;8303;53.446;9.988;2023-07-31T13:10:46;19.10;56.80
16388;DHT22;8303;53.446;9.988;2023-07-31T13:13:13;19.10;79.10
16388;DHT22;8303;53.446;9.988;2023-07-31T13:15:43;19.20;94.70
16388;DHT22;8303;53.446;9.988;2023-07-31T13:18:16;19.00;25.00
16388;DHT22;8303;53.446;9.988;2023-07-31T13:20:47;19.00;99.90
16388;DHT22;8303;53.446;9.988;2023-07-31T13:23:14;19.00;77.20
16388;DHT22;8303;53.446;9.988;2023-07-31T13:25:41;18.90;90.80
16388;DHT22;8303;53.446;9.988;2023-07-31T13:28:08;18.90;62.70
16388;DHT22;8303;53.446;9.988;2023-07-31T13:30:35;18.80;99.90
16388;DHT22;8303;53.446;9.988;2023-07-31T13:33:04;18.80;99.90
16388;DHT22;8303;53.446;9.988;2023-07-31T13:35:31;18.90;99.90
16388;DHT22;8303;53.446;9.988;2023-07-31T13:37:58;19.00;99.90
16388;DHT22;8303;53.446;9.988;2023-07-31T13:40:25;19.30;45.00
16388;DHT22;8303;53.446;9.988;2023-07-31T13:42:52;19.60;1.00
16388;DHT22;8303;53.446;9.988;2023-07-31T13:45:20;20.10;1.00
16388;DHT22;8303;53.446;9.988;2023-07-31T13:47:47;20.30;99.90
16388;DHT22;8303;53.446;9.988;2023-07-31T13:50:18;20.20;99.90
16388;DHT22;8303;53.446;9.988;2023-07-31T13:52:47;20.10;1.00
16388;DHT22;8303;53.446;9.988;2023-07-31T13:55:14;20.00;94.00
16388;DHT22;8303;53.446;9.988;2023-07-31T13:57:41;19.90;99.90
16388;DHT22;8303;53.446;9.988;2023-07-31T14:00:09;19.90;1.00
16388;DHT22;8303;53.446;9.988;2023-07-31T14:02:37;19.60;99.90
16388;DHT22;8303;53.446;9.988;2023-07-31T14:05:04;19.50;1.00
16388;DHT22;8303;53.446;9.988;2023-07-31T14:07:33;19.50;1.00
16388;DHT22;8303;53.446;9.988;2023-07-31T14:10:00;19.60;1.00
16388;DHT22;8303;53.446;9.988;2023-07-31T14:12:29;19.70;1.00
16388;DHT22;8303;53.446;9.988;2023-07-31T14:14:56;19.60;1.00
16388;DHT22;8303;53.446;9.988;2023-07-31T14:17:23;19.40;1.00
16388;DHT22;8303;53.446;9.988;2023-07-31T14:19:50;19.20;19.00
16388;DHT22;8303;53.446;9.988;2023-07-31T14:22:27;19.00;72.40
16388;DHT22;8303;53.446;9.988;2023-07-31T14:24:56;18.70;99.90
16388;DHT22;8303;53.446;9.988;2023-07-31T14:27:23;18.60;99.90
16388;DHT22;8303;53.446;9.988;2023-07-31T14:29:50;18.70;99.90
16388;DHT22;8303;53.446;9.988;2023-07-31T14:32:17;18.70;99.90
16388;DHT22;8303;53.446;9.988;2023-07-31T14:34:44;18.80;99.90
16388;DHT22;8303;53.446;9.988;2023-07-31T14:37:11;18.90;99.90
16388;DHT22;8303;53.446;9.988;2023-07-31T14:39:38;18.90;99.90
16388;DHT22;8303;53.446;9.988;2023-07-31T14:42:07;19.00;99.90
16388;DHT22;8303;53.446;9.988;2023-07-31T14:44:34;19.00;99.90
16388;DHT22;8303;53.446;9.988;2023-07-31T14:47:01;18.90;99.90
16388;DHT22;8303;53.446;9.988;2023-07-31T14:49:28;18.80;99.90
16388;DHT22;8303;53.446;9.988;2023-07-31T14:51:55;18.90;99.90
16388;DHT22;8303;53.446;9.988;2023-07-31T14:54:22;18.90;99.90
16388;DHT22;8303;53.446;9.988;2023-07-31T14:56:49;18.90;99.90
16388;DHT22;8303;53.446;9.988;2023-07-31T14:59:20;18.90;99.90
16388;DHT22;8303;53.446;9.988;2023-07-31T15:01:47;19.00;99.90
16388;DHT22;8303;53.446;9.988;2023-07-31T15:04:14;19.00;99.90
16388;DHT22;8303;53.446;9.988;2023-07-31T15:06:41;19.00;99.90
16388;DHT22;8303;53.446;9.988;2023-07-31T15:09:08;19.00;99.90
16388;DHT22;8303;53.446;9.988;2023-07-31T15:11:35;18.90;99.90
16388;DHT22;8303;53.446;9.988;2023-07-31T15:14:02;18.90;99.90
16388;DHT22;8303;53.446;9.988;2023-07-31T15:16:30;18.80;99.90
16388;DHT22;8303;53.446;9.988;2023-07-31T15:18:57;18.80;99.90
16388;DHT22;8303;53.446;9.988;2023-07-31T15:21:24;18.80;99.90
16388;DHT22;8303;53.446;9.988;2023-07-31T15:23:52;18.80;99.90
16388;DHT22;8303;53.446;9.988;2023-07-31T15:26:19;18.70;99.90
16388;DHT22;8303;53.446;9.988;2023-07-31T15:28:55;18.70;99.90
16388;DHT22;8303;53.446;9.988;2023-07-31T15:31:22;18.60;99.90
16388;DHT22;8303;53.446;9.988;2023-07-31T15:33:51;18.50;99.90
16388;DHT22;8303;53.446;9.988;2023-07-31T15:36:18;18.40;99.90
16388;DHT22;8303;53.446;9.988;2023-07-31T15:38:45;18.30;99.90
16388;DHT22;8303;53.446;9.988;2023-07-31T15:41:16;18.30;99.90
16388;DHT22;8303;53.446;9.988;2023-07-31T15:43:46;18.20;99.90
16388;DHT22;8303;53.446;9.988;2023-07-31T15:46:13;18.20;99.90
16388;DHT22;8303;53.446;9.988;2023-07-31T15:48:40;18.20;99.90
16388;DHT22;8303;53.446;9.988;2023-07-31T15:51:09;18.10;99.90
16388;DHT22;8303;53.446;9.988;2023-07-31T15:53:37;18.10;99.90
16388;DHT22;8303;53.446;9.988;2023-07-31T15:56:04;18.10;99.90
16388;DHT22;8303;53.446;9.988;2023-07-31T15:58:31;18.10;99.90
16388;DHT22;8303;53.446;9.988;2023-07-31T16:00:58;18.10;99.90
16388;DHT22;8303;53.446;9.988;2023-07-31T16:03:25;18.00;99.90
16388;DHT22;8303;53.446;9.988;2023-07-31T16:05:52;18.00;99.90
16388;DHT22;8303;53.446;9.988;2023-07-31T16:08:20;18.00;99.90
16388;DHT22;8303;53.446;9.988;2023-07-31T16:10:47;18.00;99.90
16388;DHT22;8303;53.446;9.988;2023-07-31T16:13:15;18.10;99.90
16388;DHT22;8303;53.446;9.988;2023-07-31T16:15:42;18.10;99.90
16388;DHT22;8303;53.446;9.988;2023-07-31T16:18:09;18.10;99.90
16388;DHT22;8303;53.446;9.988;2023-07-31T16:20:36;18.10;99.90
16388;DHT22;8303;53.446;9.988;2023-07-31T16:23:03;18.20;99.90
16388;DHT22;8303;53.446;9.988;2023-07-31T16:25:33;18.10;99.90
16388;DHT22;8303;53.446;9.988;2023-07-31T16:28:00;18.20;99.90
16388;DHT22;8303;53.446;9.988;2023-07-31T16:30:27;18.20;99.90
16388;DHT22;8303;53.446;9.988;2023-07-31T16:32:54;18.20;99.90
16388;DHT22;8303;53.446;9.988;2023-07-31T16:35:24;18.10;99.90
16388;DHT22;8303;53.446;9.988;2023-07-31T16:37:51;18.20;99.90
16388;DHT22;8303;53.446;9.988;2023-07-31T16:40:18;18.10;99.90
16388;DHT22;8303;53.446;9.988;2023-07-31T16:42:46;18.00;99.90
16388;DHT22;8303;53.446;9.988;2023-07-31T16:45:13;18.00;99.90
16388;DHT22;8303;53.446;9.988;2023-07-31T16:47:40;18.00;99.90
16388;DHT22;8303;53.446;9.988;2023-07-31T16:50:08;18.00;99.90
16388;DHT22;8303;53.446;9.988;2023-07-31T16:52:35;18.10;99.90
16388;DHT22;8303;53.446;9.988;2023-07-31T16:55:02;18.10;99.90
16388;DHT22;8303;53.446;9.988;2023-07-31T16:57:28;18.20;99.90
16388;DHT22;8303;53.446;9.988;2023-07-31T16:59:57;18.20;99.90
16388;DHT22;8303;53.446;9.988;2023-07-31T17:02:24;18.20;99.90
16388;DHT22;8303;53.446;9.988;2023-07-31T17:04:51;18.30;99.90
16388;DHT22;8303;53.446;9.988;2023-07-31T17:07:18;18.40;99.90
16388;DHT22;8303;53.446;9.988;2023-07-31T17:09:46;18.40;99.90
16388;DHT22;8303;53.446;9.988;2023-07-31T17:12:13;18.40;99.90
16388;DHT22;8303;53.446;9.988;2023-07-31T17:14:40;18.30;99.90
16388;DHT22;8303;53.446;9.988;2023-07-31T17:17:08;18.40;99.90
16388;DHT22;8303;53.446;9.988;2023-07-31T17:19:36;18.30;99.90
16388;DHT22;8303;53.446;9.988;2023-07-31T17:22:03;18.30;99.90
16388;DHT22;8303;53.446;9.988;2023-07-31T17:24:30;18.30;99.90
16388;DHT22;8303;53.446;9.988;2023-07-31T17:26:58;18.20;99.90
16388;DHT22;8303;53.446;9.988;2023-07-31T17:29:28;18.20;99.90
16388;DHT22;8303;53.446;9.988;2023-07-31T17:31:55;18.20;99.90
16388;DHT22;8303;53.446;9.988;2023-07-31T17:34:23;18.10;99.90
16388;DHT22;8303;53.446;9.988;2023-07-31T17:36:50;18.10;99.90
16388;DHT22;8303;53.446;9.988;2023-07-31T17:39:17;18.10;99.90
16388;DHT22;8303;53.446;9.988;2023-07-31T17:41:44;18.00;99.90
16388;DHT22;8303;53.446;9.988;2023-07-31T17:44:11;18.00;99.90
16388;DHT22;8303;53.446;9.988;2023-07-31T17:46:38;17.90;99.90
16388;DHT22;8303;53.446;9.988;2023-07-31T17:49:04;17.90;99.90
16388;DHT22;8303;53.446;9.988;2023-07-31T17:51:33;17.80;99.90
16388;DHT22;8303;53.446;9.988;2023-07-31T17:54:01;17.80;99.90
16388;DHT22;8303;53.446;9.988;2023-07-31T17:56:30;17.80;99.90
16388;DHT22;8303;53.446;9.988;2023-07-31T17:58:59;17.80;99.90
16388;DHT22;8303;53.446;9.988;2023-07-31T18:01:26;17.80;99.90
16388;DHT22;8303;53.446;9.988;2023-07-31T18:03:53;17.80;99.90
16388;DHT22;8303;53.446;9.988;2023-07-31T18:06:20;17.90;99.90
16388;DHT22;8303;53.446;9.988;2023-07-31T18:08:48;17.90;99.90
16388;DHT22;8303;53.446;9.988;2023-07-31T18:11:15;17.90;99.90
16388;DHT22;8303;53.446;9.988;2023-07-31T18:13:42;17.90;99.90
16388;DHT22;8303;53.446;9.988;2023-07-31T18:16:08;17.90;99.90
16388;DHT22;8303;53.446;9.988;2023-07-31T18:18:35;17.90;99.90
16388;DHT22;8303;53.446;9.988;2023-07-31T18:21:02;17.90;99.90
16388;DHT22;8303;53.446;9.988;2023-07-31T18:23:31;17.90;99.90
16388;DHT22;8303;53.446;9.988;2023-07-31T18:25:59;17.90;99.90
16388;DHT22;8303;53.446;9.988;2023-07-31T18:28:26;17.90;99.90
16388;DHT22;8303;53.446;9.988;2023-07-31T18:30:56;17.90;99.90
16388;DHT22;8303;53.446;9.988;2023-07-31T18:33:23;17.90;99.90
16388;DHT22;8303;53.446;9.988;2023-07-31T18:35:50;17.90;99.90
16388;DHT22;8303;53.446;9.988;2023-07-31T18:38:18;17.80;99.90
16388;DHT22;8303;53.446;9.988;2023-07-31T18:40:44;17.80;99.90
16388;DHT22;8303;53.446;9.988;2023-07-31T18:43:13;17.80;99.90
16388;DHT22;8303;53.446;9.988;2023-07-31T18:45:40;17.80;99.90
16388;DHT22;8303;53.446;9.988;2023-07-31T18:48:07;17.80;99.90
16388;DHT22;8303;53.446;9.988;2023-07-31T18:50:33;17.70;99.90
16388;DHT22;8303;53.446;9.988;2023-07-31T18:53:00;17.70;99.90
16388;DHT22;8303;53.446;9.988;2023-07-31T18:55:28;17.60;99.90
16388;DHT22;8303;53.446;9.988;2023-07-31T18:57:55;17.70;99.90
16388;DHT22;8303;53.446;9.988;2023-07-31T19:00:23;17.60;99.90
16388;DHT22;8303;53.446;9.988;2023-07-31T19:02:50;17.60;99.90
16388;DHT22;8303;53.446;9.988;2023-07-31T19:05:17;17.60;99.90
16388;DHT22;8303;53.446;9.988;2023-07-31T19:07:47;17.60;99.90
16388;DHT22;8303;53.446;9.988;2023-07-31T19:10:13;17.60;99.90
16388;DHT22;8303;53.446;9.988;2023-07-31T19:12:41;17.60;99.90
16388;DHT22;8303;53.446;9.988;2023-07-31T19:15:08;17.50;99.90
16388;DHT22;8303;53.446;9.988;2023-07-31T19:17:37;17.60;99.90
16388;DHT22;8303;53.446;9.988;2023-07-31T19:20:06;17.60;99.90
16388;DHT22;8303;53.446;9.988;2023-07-31T19:22:33;17.60;99.90
16388;DHT22;8303;53.446;9.988;2023-07-31T19:25:00;17.60;99.90
16388;DHT22;8303;53.446;9.988;2023-07-31T19:27:27;17.60;99.90
16388;DHT22;8303;53.446;9.988;2023-07-31T19:29:54;17.60;99.90
16388;DHT22;8303;53.446;9.988;2023-07-31T19:32:20;17.60;99.90
16388;DHT22;8303;53.446;9.988;2023-07-31T19:34:49;17.60;99.90
16388;DHT22;8303;53.446;9.988;2023-07-31T19:37:16;17.50;99.90
16388;DHT22;8303;53.446;9.988;2023-07-31T19:39:43;17.50;99.90
16388;DHT22;8303;53.446;9.988;2023-07-31T19:42:10;17.50;99.90
16388;DHT22;8303;53.446;9.988;2023-07-31T19:44:37;17.50;99.90
16388;DHT22;8303;53.446;9.988;2023-07-31T19:47:04;17.50;99.90
16388;DHT22;8303;53.446;9.988;2023-07-31T19:49:31;17.50;99.90
16388;DHT22;8303;53.446;9.988;2023-07-31T19:51:59;17.50;99.90
16388;DHT22;8303;53.446;9.988;2023-07-31T19:54:26;17.50;99.90
16388;DHT22;8303;53.446;9.988;2023-07-31T19:56:53;17.40;99.90
16388;DHT22;8303;53.446;9.988;2023-07-31T19:59:20;17.40;99.90
16388;DHT22;8303;53.446;9.988;2023-07-31T20:01:47;17.50;99.90
16388;DHT22;8303;53.446;9.988;2023-07-31T20:04:14;17.40;99.90
16388;DHT22;8303;53.446;9.988;2023-07-31T20:06:41;17.40;99.90
16388;DHT22;8303;53.446;9.988;2023-07-31T20:09:09;17.40;99.90
16388;DHT22;8303;53.446;9.988;2023-07-31T20:11:36;17.40;99.90
16388;DHT22;8303;53.446;9.988;2023-07-31T20:14:04;17.40;99.90
16388;DHT22;8303;53.446;9.988;2023-07-31T20:16:32;17.40;99.90
16388;DHT22;8303;53.446;9.988;2023-07-31T20:19:01;17.40;99.90
16388;DHT22;8303;53.446;9.988;2023-07-31T20:21:28;17.40;99.90
16388;DHT22;8303;53.446;9.988;2023-07-31T20:23:54;17.40;99.90
16388;DHT22;8303;53.446;9.988;2023-07-31T20:26:23;17.40;99.90
16388;DHT22;8303;53.446;9.988;2023-07-31T20:28:49;17.30;99.90
